| time (UTC) | temp C | wind direction | speed KPH | gust KPH | rain 1hr cm | rain 24hr cm | rain mn cm | humidity % | barometer mb |
| 20260505093123 | 16 | 149 | 1.6 | 3.2 | 0.00 | 0.00 | 0.00 | 80 | 1005.8 |
| 20260505092848 | 16 | 149 | 1.6 | 3.2 | 0.00 | 0.00 | 0.00 | 80 | 1005.9 |
| 20260505092120 | 16 | 149 | 1.6 | 3.2 | 0.00 | 0.00 | 0.00 | 80 | 1006.0 |
| 20260505091620 | 16 | 149 | 1.6 | 3.2 | 0.00 | 0.00 | 0.00 | 79 | 1006.2 |
| 20260505091116 | 16 | 135 | 1.6 | 6.4 | 0.00 | 0.00 | 0.00 | 80 | 1006.3 |
| 20260505090616 | 16 | 135 | 1.6 | 6.4 | 0.00 | 0.00 | 0.00 | 80 | 1006.3 |
| 20260505090335 | 16 | 144 | 1.6 | 3.2 | 0.00 | 0.00 | 0.00 | 81 | 1006.5 |
| 20260505085616 | 16 | 107 | 0.0 | 3.2 | 0.00 | 0.00 | 0.00 | 80 | 1006.4 |
| 20260505085116 | 17 | 76 | 0.0 | 3.2 | 0.00 | 0.00 | 0.00 | 78 | 1006.2 |
| 20260505084834 | 17 | 130 | 0.0 | 1.6 | 0.00 | 0.00 | 0.00 | 77 | 1006.5 |
| 20260505084116 | 17 | 130 | 1.6 | 3.2 | 0.00 | 0.00 | 0.00 | 75 | 1006.6 |
| 20260505083615 | 18 | 130 | 0.0 | 3.2 | 0.00 | 0.00 | 0.00 | 71 | 1006.5 |
| 20260505083109 | 18 | 243 | 0.0 | 1.6 | 0.00 | 0.00 | 0.00 | 69 | 1006.7 |
| 20260505082607 | 19 | 323 | 0.0 | 16.1 | 0.00 | 0.00 | 0.00 | 69 | 1006.6 |
| 20260505082107 | 19 | 323 | 0.0 | 16.1 | 0.00 | 0.00 | 0.00 | 68 | 1006.8 |
| 20260505081606 | 19 | 292 | 6.4 | 37.0 | 0.00 | 0.00 | 0.00 | 67 | 1006.8 |
| 20260505081332 | 20 | 319 | 9.7 | 37.0 | 0.00 | 0.00 | 0.00 | 66 | 1006.9 |
| 20260505080607 | 20 | 303 | 14.5 | 38.6 | 0.00 | 0.00 | 0.00 | 66 | 1006.8 |
| 20260505080108 | 19 | 285 | 16.1 | 38.6 | 0.00 | 0.00 | 0.00 | 66 | 1006.9 |
| 20260505075609 | 19 | 275 | 14.5 | 33.8 | 0.00 | 0.00 | 0.00 | 66 | 1006.8 |
| 20260505075108 | 19 | 277 | 11.3 | 33.8 | 0.00 | 0.00 | 0.00 | 65 | 1007.3 |
| 20260505074606 | 19 | 267 | 4.8 | 16.1 | 0.00 | 0.00 | 0.00 | 65 | 1005.7 |
| 20260505074103 | 19 | 169 | 4.8 | 14.5 | 0.00 | 0.00 | 0.00 | 64 | 1005.5 |
| 20260505073601 | 19 | 223 | 3.2 | 14.5 | 0.00 | 0.00 | 0.00 | 65 | 1005.5 |
| 20260505073059 | 19 | 287 | 4.8 | 14.5 | 0.00 | 0.00 | 0.00 | 64 | 1005.6 |
| 20260505072558 | 19 | 307 | 4.8 | 16.1 | 0.00 | 0.00 | 0.00 | 65 | 1005.6 |
| 20260505072313 | 19 | 259 | 4.8 | 16.1 | 0.00 | 0.00 | 0.00 | 65 | 1005.7 |
| 20260505071548 | 19 | 217 | 3.2 | 16.1 | 0.00 | 0.00 | 0.00 | 65 | 1005.6 |
| 20260505071539 | 19 | 230 | 3.2 | 16.1 | 0.00 | 0.00 | 0.00 | 64 | 1005.7 |
| 20260505070548 | 19 | 182 | 3.2 | 16.1 | 0.00 | 0.00 | 0.00 | 64 | 1005.6 |
| 20260505070047 | 20 | 155 | 3.2 | 12.9 | 0.00 | 0.00 | 0.00 | 64 | 1005.6 |
| 20260505065541 | 20 | 240 | 4.8 | 14.5 | 0.00 | 0.15 | 0.00 | 64 | 1005.6 |
| 20260505065040 | 20 | 226 | 6.4 | 19.3 | 0.00 | 0.23 | 0.00 | 63 | 1005.6 |
| 20260505064535 | 20 | 182 | 4.8 | 19.3 | 0.00 | 0.23 | 0.00 | 63 | 1005.5 |
| 20260505064035 | 20 | 236 | 3.2 | 14.5 | 0.00 | 0.23 | 0.00 | 63 | 1005.4 |
| 20260505063534 | 20 | 248 | 4.8 | 14.5 | 0.00 | 0.23 | 0.00 | 63 | 1005.3 |
| 20260505063032 | 20 | 146 | 3.2 | 12.9 | 0.00 | 0.23 | 0.00 | 63 | 1005.3 |
| 20260505062528 | 20 | 178 | 3.2 | 12.9 | 0.00 | 0.23 | 0.00 | 63 | 1005.3 |
| 20260505062025 | 20 | 225 | 4.8 | 16.1 | 0.00 | 0.23 | 0.00 | 62 | 1005.3 |
| 20260505061519 | 20 | 202 | 4.8 | 16.1 | 0.00 | 0.23 | 0.00 | 62 | 1005.3 |
| 20260505061018 | 20 | 187 | 6.4 | 24.1 | 0.00 | 0.23 | 0.00 | 62 | 1005.3 |
| 20260505060741 | 20 | 131 | 6.4 | 24.1 | 0.00 | 0.23 | 0.00 | 62 | 1005.3 |
| 20260505060018 | 20 | 256 | 4.8 | 19.3 | 0.00 | 0.23 | 0.00 | 62 | 1005.3 |
| 20260505055515 | 20 | 155 | 6.4 | 19.3 | 0.00 | 0.23 | 0.00 | 62 | 1005.3 |
| 20260505055014 | 20 | 303 | 4.8 | 19.3 | 0.00 | 0.23 | 0.00 | 62 | 1005.2 |
| 20260505054513 | 20 | 284 | 6.4 | 24.1 | 0.00 | 0.23 | 0.00 | 62 | 1005.2 |
| 20260505054009 | 20 | 248 | 6.4 | 24.1 | 0.00 | 0.23 | 0.00 | 62 | 1005.1 |
| 20260505053507 | 20 | 198 | 4.8 | 17.7 | 0.00 | 0.23 | 0.00 | 62 | 1004.9 |
| 20260505053006 | 20 | 239 | 6.4 | 16.1 | 0.00 | 0.23 | 0.00 | 61 | 1004.9 |
| 20260505052728 | 20 | 178 | 6.4 | 19.3 | 0.00 | 0.23 | 0.00 | 61 | 1004.7 |
| 20260505052225 | 20 | 156 | 6.4 | 19.3 | 0.00 | 0.23 | 0.00 | 61 | 1004.6 |
| 20260505051720 | 20 | 178 | 4.8 | 19.3 | 0.00 | 0.23 | 0.00 | 61 | 1004.5 |
| 20260505050957 | 20 | 243 | 4.8 | 19.3 | 0.00 | 0.23 | 0.00 | 61 | 1004.6 |
| 20260505050455 | 20 | 161 | 6.4 | 16.1 | 0.00 | 0.23 | 0.00 | 61 | 1004.5 |
| 20260505041431 | 20 | 169 | 4.8 | 14.5 | 0.00 | 0.23 | 0.23 | 60 | 1004.4 |
| 20260505040934 | 20 | 221 | 4.8 | 12.9 | 0.00 | 0.23 | 0.23 | 60 | 1004.7 |
| 20260505040430 | 21 | 162 | 4.8 | 17.7 | 0.00 | 0.23 | 0.23 | 60 | 1004.7 |
| 20260505035926 | 21 | 164 | 4.8 | 17.7 | 0.00 | 0.23 | 0.23 | 60 | 1004.8 |
| 20260505035420 | 21 | 215 | 4.8 | 14.5 | 0.00 | 0.23 | 0.23 | 60 | 1004.7 |
| 20260505035141 | 21 | 223 | 3.2 | 14.5 | 0.00 | 0.23 | 0.23 | 60 | 1004.8 |
| 20260505034418 | 21 | 137 | 4.8 | 12.9 | 0.00 | 0.23 | 0.23 | 60 | 1004.9 |
| 20260505033917 | 21 | 189 | 4.8 | 17.7 | 0.00 | 0.23 | 0.23 | 60 | 1004.9 |
| 20260505033421 | 21 | 140 | 4.8 | 17.7 | 0.00 | 0.23 | 0.23 | 60 | 1004.9 |
| 20260505033131 | 21 | 257 | 8.0 | 19.3 | 0.00 | 0.23 | 0.23 | 60 | 1004.9 |
| 20260505032412 | 21 | 220 | 6.4 | 22.5 | 0.00 | 0.23 | 0.23 | 60 | 1004.8 |
| 20260505031915 | 21 | 193 | 4.8 | 22.5 | 0.00 | 0.23 | 0.23 | 60 | 1004.9 |
| 20260505031405 | 21 | 224 | 4.8 | 17.7 | 0.00 | 0.23 | 0.23 | 60 | 1004.7 |
| 20260505031124 | 21 | 161 | 6.4 | 17.7 | 0.00 | 0.23 | 0.23 | 59 | 1004.8 |
| 20260505030638 | 21 | 178 | 8.0 | 14.5 | 0.00 | 0.23 | 0.23 | 59 | 1004.8 |
| 20260505025859 | 21 | 228 | 8.0 | 16.1 | 0.00 | 0.23 | 0.23 | 59 | 1004.7 |
| 20260505025359 | 21 | 192 | 6.4 | 16.1 | 0.00 | 0.23 | 0.23 | 59 | 1004.7 |
| 20260505024903 | 21 | 140 | 4.8 | 14.5 | 0.00 | 0.23 | 0.23 | 59 | 1004.6 |
| 20260505024353 | 21 | 179 | 6.4 | 17.7 | 0.00 | 0.23 | 0.23 | 59 | 1004.6 |
| 20260505023853 | 21 | 161 | 6.4 | 17.7 | 0.00 | 0.23 | 0.23 | 59 | 1004.5 |
| 20260505023357 | 21 | 209 | 4.8 | 11.3 | 0.00 | 0.23 | 0.23 | 58 | 1004.5 |
| 20260505022847 | 21 | 156 | 4.8 | 11.3 | 0.00 | 0.23 | 0.23 | 58 | 1004.4 |
| 20260505022347 | 21 | 165 | 6.4 | 16.1 | 0.00 | 0.23 | 0.23 | 58 | 1004.3 |
| 20260505021604 | 21 | 255 | 4.8 | 19.3 | 0.00 | 0.23 | 0.23 | 57 | 1004.2 |
| 20260505020841 | 21 | 144 | 6.4 | 19.3 | 0.00 | 0.23 | 0.23 | 57 | 1004.2 |
| 20260505020345 | 21 | 174 | 6.4 | 19.3 | 0.00 | 0.23 | 0.23 | 57 | 1004.2 |
| 20260505015835 | 21 | 187 | 6.4 | 19.3 | 0.00 | 0.23 | 0.23 | 56 | 1004.2 |
| 20260505015335 | 21 | 180 | 6.4 | 17.7 | 0.00 | 0.23 | 0.23 | 56 | 1004.1 |
| 20260505014839 | 22 | 161 | 4.8 | 16.1 | 0.00 | 0.23 | 0.23 | 56 | 1004.1 |
| 20260505014329 | 22 | 153 | 4.8 | 16.1 | 0.00 | 0.23 | 0.23 | 55 | 1004.0 |
| 20260505014057 | 22 | 161 | 6.4 | 19.3 | 0.00 | 0.23 | 0.23 | 55 | 1003.9 |
| 20260505013332 | 22 | 199 | 8.0 | 19.3 | 0.00 | 0.23 | 0.23 | 54 | 1003.8 |
| 20260505012823 | 22 | 175 | 6.4 | 16.1 | 0.00 | 0.23 | 0.23 | 54 | 1003.7 |
| 20260505012323 | 22 | 145 | 4.8 | 14.5 | 0.00 | 0.23 | 0.23 | 54 | 1003.8 |
| 20260505012049 | 22 | 129 | 6.4 | 19.3 | 0.00 | 0.23 | 0.23 | 53 | 1003.6 |
| 20260505011544 | 22 | 183 | 8.0 | 19.3 | 0.00 | 0.23 | 0.23 | 53 | 1003.5 |
| 20260505011047 | 22 | 129 | 6.4 | 17.7 | 0.00 | 0.23 | 0.23 | 53 | 1003.5 |
| 20260505010321 | 22 | 155 | 6.4 | 16.1 | 0.00 | 0.23 | 0.23 | 52 | 1003.4 |
| 20260505005821 | 23 | 176 | 8.0 | 17.7 | 0.00 | 0.23 | 0.23 | 51 | 1003.3 |
| 20260505005325 | 23 | 120 | 8.0 | 19.3 | 0.00 | 0.23 | 0.23 | 51 | 1003.4 |
| 20260505004819 | 23 | 190 | 8.0 | 22.5 | 0.00 | 0.23 | 0.23 | 51 | 1003.3 |
| 20260505004319 | 23 | 161 | 6.4 | 22.5 | 0.00 | 0.23 | 0.23 | 50 | 1003.3 |
| 20260505003819 | 23 | 146 | 6.4 | 16.1 | 0.00 | 0.23 | 0.23 | 50 | 1003.3 |
| 20260505003321 | 23 | 165 | 6.4 | 22.5 | 0.00 | 0.23 | 0.23 | 49 | 1003.3 |
| 20260505003034 | 23 | 117 | 6.4 | 22.5 | 0.00 | 0.23 | 0.23 | 49 | 1003.2 |
| 20260505002310 | 23 | 201 | 8.0 | 22.5 | 0.00 | 0.23 | 0.23 | 48 | 1003.2 |
| 20260505001813 | 23 | 159 | 9.7 | 29.0 | 0.00 | 0.23 | 0.23 | 48 | 1003.2 |
| 20260505001312 | 23 | 201 | 9.7 | 29.0 | 0.00 | 0.23 | 0.23 | 48 | 1003.0 |
| 20260505000811 | 23 | 219 | 8.0 | 25.7 | 0.00 | 0.23 | 0.23 | 48 | 1003.0 |
| 20260505000315 | 23 | 142 | 6.4 | 25.7 | 0.00 | 0.23 | 0.23 | 49 | 1003.1 |
| 20260504235815 | 23 | 208 | 8.0 | 20.9 | 0.00 | 0.23 | 0.23 | 49 | 1003.0 |
| 20260504235305 | 23 | 151 | 8.0 | 20.9 | 0.00 | 0.23 | 0.23 | 49 | 1003.1 |
| 20260504235025 | 23 | 157 | 8.0 | 22.5 | 0.00 | 0.23 | 0.23 | 49 | 1003.2 |
| 20260504234308 | 23 | 67 | 8.0 | 22.5 | 0.00 | 0.23 | 0.23 | 49 | 1002.9 |
| 20260504234025 | 24 | 153 | 9.7 | 22.5 | 0.00 | 0.23 | 0.23 | 48 | 1002.8 |
| 20260504233523 | 24 | 163 | 9.7 | 24.1 | 0.00 | 0.23 | 0.23 | 48 | 1003.1 |
| 20260504232805 | 24 | 134 | 8.0 | 24.1 | 0.00 | 0.23 | 0.23 | 48 | 1003.2 |
| 20260504232301 | 24 | 172 | 8.0 | 27.4 | 0.00 | 0.23 | 0.23 | 47 | 1003.2 |
| 20260504231801 | 24 | 157 | 8.0 | 27.4 | 0.00 | 0.23 | 0.23 | 47 | 1003.3 |
| 20260504231528 | 24 | 202 | 8.0 | 20.9 | 0.00 | 0.23 | 0.23 | 47 | 1003.4 |
| 20260504231241 | 24 | 100 | 9.7 | 27.4 | 0.00 | 0.23 | 0.23 | 47 | 1003.6 |
| 20260504230300 | 24 | 174 | 11.3 | 27.4 | 0.00 | 0.23 | 0.23 | 47 | 1003.5 |
| 20260504230017 | 25 | 159 | 11.3 | 24.1 | 0.00 | 0.23 | 0.23 | 46 | 1003.5 |
| 20260504225254 | 25 | 176 | 9.7 | 33.8 | 0.00 | 0.23 | 0.23 | 46 | 1003.5 |
| 20260504224752 | 25 | 178 | 11.3 | 33.8 | 0.00 | 0.23 | 0.23 | 46 | 1003.6 |
| 20260504224508 | 25 | 148 | 12.9 | 35.4 | 0.00 | 0.23 | 0.23 | 46 | 1003.5 |
| 20260504223751 | 25 | 238 | 11.3 | 35.4 | 0.00 | 0.23 | 0.23 | 45 | 1003.7 |
| 20260504223245 | 25 | 167 | 12.9 | 38.6 | 0.00 | 0.23 | 0.23 | 45 | 1003.7 |
| 20260504222745 | 25 | 167 | 16.1 | 38.6 | 0.00 | 0.23 | 0.23 | 46 | 1003.8 |
| 20260504222245 | 24 | 112 | 14.5 | 33.8 | 0.00 | 0.23 | 0.23 | 45 | 1003.6 |
| 20260504221743 | 24 | 144 | 14.5 | 30.6 | 0.00 | 0.23 | 0.23 | 47 | 1003.5 |
| 20260504221242 | 24 | 152 | 12.9 | 27.4 | 0.00 | 0.23 | 0.23 | 46 | 1003.5 |
| 20260504221015 | 24 | 169 | 11.3 | 24.1 | 0.00 | 0.23 | 0.23 | 47 | 1003.7 |
| 20260504220239 | 24 | 167 | 11.3 | 25.7 | 0.00 | 0.23 | 0.23 | 47 | 1003.6 |
| 20260504215739 | 24 | 145 | 9.7 | 25.7 | 0.00 | 0.23 | 0.23 | 48 | 1003.6 |
| 20260504215235 | 23 | 202 | 9.7 | 19.3 | 0.00 | 0.23 | 0.23 | 51 | 1003.7 |
| 20260504214734 | 23 | 153 | 11.3 | 24.1 | 0.00 | 0.23 | 0.23 | 50 | 1003.2 |
| 20260504214234 | 23 | 142 | 11.3 | 24.1 | 0.00 | 0.23 | 0.23 | 52 | 1002.9 |
| 20260504213735 | 22 | 146 | 12.9 | 22.5 | 0.00 | 0.23 | 0.23 | 53 | 1003.0 |
| 20260504213230 | 21 | 144 | 12.9 | 22.5 | 0.00 | 0.23 | 0.23 | 53 | 1003.1 |
| 20260504212730 | 21 | 135 | 12.9 | 30.6 | 0.00 | 0.23 | 0.23 | 54 | 1003.1 |
| 20260504212226 | 21 | 177 | 14.5 | 30.6 | 0.00 | 0.23 | 0.23 | 56 | 1003.1 |
| 20260504211727 | 21 | 136 | 14.5 | 32.2 | 0.00 | 0.23 | 0.23 | 56 | 1003.5 |
| 20260504211226 | 21 | 150 | 12.9 | 32.2 | 0.00 | 0.23 | 0.23 | 56 | 1004.5 |
| 20260504210727 | 22 | 155 | 11.3 | 25.7 | 0.00 | 0.23 | 0.23 | 55 | 1005.0 |
| 20260504210222 | 22 | 166 | 12.9 | 25.7 | 0.00 | 0.23 | 0.23 | 55 | 1005.2 |
| 20260504205946 | 21 | 168 | 14.5 | 27.4 | 0.00 | 0.23 | 0.23 | 57 | 1005.0 |
| 20260504205219 | 20 | 169 | 12.9 | 27.4 | 0.00 | 0.23 | 0.23 | 61 | 1004.8 |
| 20260504204719 | 20 | 147 | 9.7 | 19.3 | 0.00 | 0.23 | 0.23 | 67 | 1004.8 |
| 20260504204443 | 19 | 144 | 8.0 | 12.9 | 0.00 | 0.23 | 0.23 | 72 | 1005.2 |
| 20260504203945 | 19 | 131 | 4.8 | 11.3 | 0.00 | 0.23 | 0.23 | 73 | 1005.6 |
| 20260504203219 | 19 | 134 | 3.2 | 8.0 | 0.00 | 0.23 | 0.23 | 73 | 1005.9 |
| 20260504202718 | 19 | 123 | 1.6 | 4.8 | 0.00 | 0.23 | 0.23 | 72 | 1006.1 |
| 20260504202219 | 20 | 109 | 0.0 | 4.8 | 0.00 | 0.23 | 0.23 | 70 | 1006.4 |
| 20260504201718 | 20 | 347 | 0.0 | 4.8 | 0.00 | 0.23 | 0.23 | 70 | 1006.7 |
| 20260504201212 | 20 | 313 | 1.6 | 4.8 | 0.00 | 0.23 | 0.23 | 69 | 1007.0 |
| 20260504200713 | 20 | 313 | 1.6 | 6.4 | 0.00 | 0.23 | 0.23 | 69 | 1007.1 |
| 20260504200212 | 20 | 297 | 1.6 | 8.0 | 0.00 | 0.23 | 0.23 | 68 | 1007.0 |
| 20260504195935 | 20 | 13 | 1.6 | 8.0 | 0.00 | 0.23 | 0.23 | 69 | 1006.9 |
| 20260504195646 | 20 | 303 | 1.6 | 4.8 | 0.00 | 0.23 | 0.23 | 69 | 1006.9 |
| 20260504194706 | 20 | 127 | 0.0 | 4.8 | 0.00 | 0.23 | 0.23 | 71 | 1006.6 |
| 20260504194422 | 20 | 127 | 0.0 | 1.6 | 0.00 | 0.23 | 0.23 | 69 | 1006.3 |
| 20260504193923 | 20 | 127 | 0.0 | 1.6 | 0.00 | 0.23 | 0.23 | 70 | 1006.3 |
| 20260504193208 | 20 | 127 | 0.0 | 1.6 | 0.00 | 0.23 | 0.23 | 68 | 1006.5 |
| 20260504192704 | 20 | 127 | 0.0 | 1.6 | 0.00 | 0.23 | 0.23 | 68 | 1006.4 |
| 20260504192425 | 20 | 127 | 0.0 | 0.0 | 0.00 | 0.23 | 0.23 | 67 | 1006.4 |
| 20260504191925 | 21 | 127 | 0.0 | 3.2 | 0.00 | 0.23 | 0.23 | 66 | 1006.2 |
| 20260504191158 | 21 | 127 | 0.0 | 3.2 | 0.00 | 0.23 | 0.23 | 67 | 1006.2 |
| 20260504190702 | 21 | 180 | 0.0 | 1.6 | 0.00 | 0.23 | 0.23 | 65 | 1006.2 |
| 20260504190415 | 21 | 181 | 0.0 | 1.6 | 0.00 | 0.23 | 0.23 | 61 | 1006.4 |
| 20260504185654 | 21 | 181 | 0.0 | 0.0 | 0.00 | 0.23 | 0.23 | 62 | 1006.3 |
| 20260504185148 | 22 | 181 | 0.0 | 3.2 | 0.00 | 0.23 | 0.23 | 62 | 1006.2 |
| 20260504184648 | 22 | 181 | 1.6 | 6.4 | 0.00 | 0.23 | 0.23 | 61 | 1006.1 |
| 20260504184147 | 21 | 157 | 1.6 | 8.0 | 0.00 | 0.23 | 0.23 | 61 | 1005.9 |
| 20260504183652 | 21 | 159 | 1.6 | 8.0 | 0.00 | 0.23 | 0.23 | 60 | 1005.7 |
| 20260504183148 | 21 | 160 | 3.2 | 8.0 | 0.00 | 0.23 | 0.23 | 60 | 1005.7 |
| 20260504182647 | 21 | 168 | 3.2 | 16.1 | 0.00 | 0.23 | 0.23 | 60 | 1005.6 |
| 20260504182403 | 21 | 124 | 4.8 | 16.1 | 0.00 | 0.23 | 0.23 | 59 | 1005.8 |
| 20260504181641 | 21 | 206 | 4.8 | 12.9 | 0.00 | 0.23 | 0.23 | 60 | 1005.7 |
| 20260504181139 | 21 | 136 | 6.4 | 16.1 | 0.00 | 0.23 | 0.23 | 61 | 1005.7 |
| 20260504180901 | 21 | 165 | 4.8 | 16.1 | 0.00 | 0.23 | 0.23 | 61 | 1005.8 |
| 20260504180138 | 21 | 167 | 3.2 | 12.9 | 0.00 | 0.23 | 0.23 | 61 | 1005.8 |
| 20260504175638 | 21 | 155 | 4.8 | 12.9 | 0.00 | 0.23 | 0.23 | 61 | 1006.1 |
| 20260504175138 | 21 | 151 | 4.8 | 12.9 | 0.00 | 0.23 | 0.23 | 61 | 1006.0 |
| 20260504174634 | 21 | 155 | 4.8 | 12.9 | 0.00 | 0.23 | 0.23 | 61 | 1006.1 |
| 20260504174133 | 21 | 201 | 3.2 | 14.5 | 0.00 | 0.23 | 0.23 | 61 | 1006.3 |
| 20260504173632 | 21 | 176 | 3.2 | 16.1 | 0.00 | 0.23 | 0.23 | 60 | 1006.3 |
| 20260504173136 | 21 | 167 | 4.8 | 16.1 | 0.00 | 0.23 | 0.23 | 60 | 1006.4 |
| 20260504172850 | 21 | 248 | 6.4 | 17.7 | 0.00 | 0.23 | 0.23 | 60 | 1006.5 |
| 20260504172348 | 21 | 150 | 6.4 | 17.7 | 0.00 | 0.23 | 0.23 | 60 | 1006.5 |
| 20260504171628 | 21 | 126 | 4.8 | 17.7 | 0.00 | 0.23 | 0.23 | 59 | 1006.6 |
| 20260504171128 | 22 | 211 | 6.4 | 17.7 | 0.00 | 0.23 | 0.23 | 59 | 1006.4 |
| 20260504170631 | 22 | 150 | 6.4 | 17.7 | 0.00 | 0.23 | 0.23 | 58 | 1006.6 |
| 20260504170123 | 22 | 173 | 3.2 | 17.7 | 0.00 | 0.23 | 0.23 | 57 | 1007.0 |
| 20260504151044 | 22 | 274 | 4.8 | 16.1 | 0.00 | 0.23 | 0.23 | 59 | 1008.1 |
| 20260504150759 | 22 | 189 | 4.8 | 16.1 | 0.00 | 0.23 | 0.23 | 61 | 1008.1 |
| 20260504150257 | 21 | 285 | 6.4 | 16.1 | 0.00 | 0.23 | 0.23 | 61 | 1008.1 |
| 20260504141016 | 20 | 202 | 3.2 | 12.9 | 0.00 | 0.23 | 0.23 | 64 | 1008.2 |
| 20260504140516 | 20 | 248 | 3.2 | 11.3 | 0.00 | 0.23 | 0.23 | 64 | 1008.2 |
| 20260504140245 | 20 | 155 | 3.2 | 16.1 | 0.00 | 0.23 | 0.23 | 65 | 1008.3 |
| 20260504130729 | 17 | 141 | 3.2 | 12.9 | 0.00 | 0.23 | 0.23 | 71 | 1008.7 |
| 20260504120213 | 15 | 161 | 4.8 | 12.9 | 0.00 | 0.23 | 0.23 | 76 | 1009.0 |
| 20260504110446 | 14 | 165 | 3.2 | 8.0 | 0.00 | 0.23 | 0.23 | 80 | 1008.9 |
| 20260504110206 | 14 | 151 | 3.2 | 11.3 | 0.00 | 0.23 | 0.23 | 81 | 1008.9 |
| 20260504100431 | 13 | 117 | 1.6 | 4.8 | 0.00 | 0.23 | 0.23 | 88 | 1009.0 |
| 20260504100154 | 13 | 137 | 1.6 | 4.8 | 0.00 | 0.23 | 0.23 | 88 | 1009.2 |